Matecaña International Airport
SKPE : rendu visible

Aérodrome :











RETROUVEZ-NOUS SUR...

 
LOGIN :

S'inscrire | Disclaimer

   EN    FR    IT 

 









Légende :    VFR   VFR Marginal   IFR   IFR Intensif   IFR Très Intensif
Visi : 
Plafond : 
>= 8 km
>= 3000ft
5 à 8 km
1000 à 3000 ft
1500m à 5 km
500 à 1000 ft
800 à 1500m
200 à 500 ft
< 800m
< 200 ft
Symboles :   Orages  Brouillard  Fortes neiges  Fortes précipitations  Vent > 20 kt






- Altitude de l'aérodrome : 4416 ft
- Code IATA : PEI


SKPE - Matecaña International

DERNIER METAR :
  • 252200Z 10004KT 9999 TS FEW020CB SCT090 29/20 A2997 RMK CB/N

METARs EXPIRÉS :
  • 252100Z 07006KT 9999 FEW025 28/20 A2997
  • 252000Z 12008KT 9999 FEW025 SCT200 27/20 A2998

TAF TAF SKPE
Valide du 25 à 18h jusqu'au 26 à 18h UTC


251630Z 2518/2618 25004KT 9999 SCT016 SCT090
BECMG 2520/2522 VRB02KT
TEMPO 2522/2601 4000 TSRA SCT017CB
BECMG 2605/2607 10008KT
BECMG 2609/2611 36010KT TX28/2519Z TN17/2611Z



MET'MAP, la Météo Aéronautique d'un coup d'oeil ! - Copyright ORBIFLY Décembre 2007 - Disclaimer

ORBIFLY MET'MAP TEAM :

Programmation & Développement : Alexandra Zaïnal
Sur une idée originale de : Baudouin d'Aumeries
Assistance à la programmation : Marc-Olivier Méhu
Soutien technique & logistique : Manuel Goepfert

Contact : metmap@orbifly.com




SOURCES & CREDITS :

   NOAA       Earth
Advisory